createdAt,value
2023-02-25T00:00:16.272Z,997.64
2023-02-25T00:01:16.288Z,997.67
2023-02-25T00:02:16.328Z,997.68
2023-02-25T00:03:16.385Z,997.72
2023-02-25T00:04:16.345Z,997.69
2023-02-25T00:05:16.364Z,997.70
2023-02-25T00:06:16.381Z,997.71
2023-02-25T00:07:16.395Z,997.75
2023-02-25T00:08:16.414Z,997.74
2023-02-25T00:09:16.429Z,997.78
2023-02-25T00:10:16.453Z,997.77
2023-02-25T00:11:16.470Z,997.75
2023-02-25T00:12:16.487Z,997.83
2023-02-25T00:13:18.567Z,997.78
2023-02-25T00:14:16.528Z,997.82
2023-02-25T00:15:16.548Z,997.78
2023-02-25T00:16:16.607Z,997.75
2023-02-25T00:17:16.577Z,997.85
2023-02-25T00:18:16.598Z,997.81
2023-02-25T00:19:16.614Z,997.84
2023-02-25T00:20:16.631Z,997.82
2023-02-25T00:21:16.721Z,997.87
2023-02-25T00:22:16.670Z,997.81
2023-02-25T00:23:16.686Z,997.88
2023-02-25T00:24:17.283Z,997.85
2023-02-25T00:25:16.736Z,997.86
2023-02-25T00:26:16.749Z,997.88
2023-02-25T00:27:16.757Z,997.81
2023-02-25T00:28:16.773Z,997.82
2023-02-25T00:29:16.801Z,997.78
2023-02-25T00:30:16.814Z,997.82
2023-02-25T00:31:16.946Z,997.78
2023-02-25T00:32:17.051Z,997.80
2023-02-25T00:33:16.872Z,997.80
2023-02-25T00:34:16.893Z,997.81
2023-02-25T00:35:16.906Z,997.77
2023-02-25T00:36:16.926Z,997.82
2023-02-25T00:37:17.038Z,997.85
2023-02-25T00:38:16.960Z,997.82
2023-02-25T00:39:17.015Z,997.77
2023-02-25T00:40:17.001Z,997.83
2023-02-25T00:41:17.016Z,997.79
2023-02-25T00:42:17.037Z,997.82
2023-02-25T00:43:17.055Z,997.79
2023-02-25T00:44:17.077Z,997.75
2023-02-25T00:45:17.093Z,997.69
2023-02-25T00:46:17.154Z,997.74
2023-02-25T00:47:17.131Z,997.71
2023-02-25T00:48:17.143Z,997.77
2023-02-25T00:49:31.432Z,997.74
2023-02-25T00:50:17.215Z,997.79
2023-02-25T00:51:17.199Z,997.86
2023-02-25T00:52:17.218Z,997.79
2023-02-25T00:53:17.238Z,997.84
2023-02-25T00:54:17.255Z,997.84
2023-02-25T00:55:17.268Z,997.79
2023-02-25T00:56:17.303Z,997.85
2023-02-25T00:57:17.313Z,997.84
2023-02-25T00:58:17.330Z,997.85
2023-02-25T00:59:17.344Z,997.87
2023-02-25T01:00:17.386Z,997.87
2023-02-25T01:01:17.414Z,997.87
2023-02-25T01:02:17.396Z,997.85
2023-02-25T01:03:17.423Z,997.86
2023-02-25T01:04:17.441Z,997.89
2023-02-25T01:05:17.459Z,997.85
2023-02-25T01:06:17.474Z,997.85
2023-02-25T01:07:17.485Z,997.83
2023-02-25T01:08:17.506Z,997.78
2023-02-25T01:09:17.521Z,997.85
2023-02-25T01:10:17.545Z,997.83
2023-02-25T01:11:17.557Z,997.87
2023-02-25T01:12:17.579Z,997.94
2023-02-25T01:13:17.596Z,997.89
2023-02-25T01:14:17.610Z,997.91
2023-02-25T01:15:17.631Z,997.90
2023-02-25T01:16:17.674Z,997.81
2023-02-25T01:17:17.667Z,997.83
2023-02-25T01:18:17.685Z,997.85
2023-02-25T01:19:17.702Z,997.87
2023-02-25T01:20:17.720Z,997.85
2023-02-25T01:21:17.746Z,997.81
2023-02-25T01:22:17.755Z,997.90
2023-02-25T01:23:17.782Z,997.80
2023-02-25T01:24:17.799Z,997.86
2023-02-25T01:25:17.817Z,997.89
2023-02-25T01:26:17.847Z,997.88
2023-02-25T01:27:17.857Z,997.82
2023-02-25T01:28:17.870Z,997.83
2023-02-25T01:29:17.886Z,997.86
2023-02-25T01:30:17.910Z,997.87
2023-02-25T01:31:18.022Z,997.89
2023-02-25T01:32:18.087Z,997.83
2023-02-25T01:33:17.961Z,997.86
2023-02-25T01:34:17.972Z,997.89
2023-02-25T01:35:17.993Z,997.87
2023-02-25T01:36:18.014Z,997.86
2023-02-25T01:37:18.027Z,997.85
2023-02-25T01:38:18.048Z,997.90
2023-02-25T01:39:18.069Z,997.86
2023-02-25T01:40:18.104Z,997.84
2023-02-25T01:41:18.102Z,997.87
2023-02-25T01:42:18.125Z,997.93
2023-02-25T01:43:18.142Z,997.91
2023-02-25T01:44:18.164Z,997.93
2023-02-25T01:45:18.177Z,997.88
2023-02-25T01:46:18.227Z,997.92
2023-02-25T01:47:18.214Z,997.94
2023-02-25T01:48:18.239Z,997.93
2023-02-25T01:49:18.254Z,997.95
2023-02-25T01:50:18.274Z,997.92
2023-02-25T01:51:18.288Z,997.93
2023-02-25T01:52:18.318Z,997.96
2023-02-25T01:53:18.333Z,997.89
2023-02-25T01:54:18.347Z,997.94
2023-02-25T01:55:18.364Z,997.94
2023-02-25T01:56:18.387Z,997.94
2023-02-25T01:57:18.406Z,997.97
2023-02-25T01:58:18.421Z,997.94
2023-02-25T01:59:18.446Z,998.00
2023-02-25T02:00:18.459Z,997.96
2023-02-25T02:01:18.472Z,997.95
2023-02-25T02:02:18.503Z,997.91
2023-02-25T02:03:18.513Z,997.90
2023-02-25T02:04:18.540Z,997.90
2023-02-25T02:05:18.549Z,997.92
2023-02-25T02:06:18.566Z,998.00
2023-02-25T02:07:18.585Z,997.93
2023-02-25T02:08:18.608Z,997.93
2023-02-25T02:09:18.626Z,997.98
2023-02-25T02:10:18.636Z,998.00
2023-02-25T02:11:18.665Z,997.99
2023-02-25T02:12:18.674Z,998.02
2023-02-25T02:13:18.693Z,998.01
2023-02-25T02:14:18.712Z,997.99
2023-02-25T02:15:18.729Z,998.00
2023-02-25T02:16:18.842Z,997.98
2023-02-25T02:17:18.765Z,998.03
2023-02-25T02:18:18.777Z,998.04
2023-02-25T02:19:18.808Z,998.03
2023-02-25T02:20:18.824Z,998.07
2023-02-25T02:21:18.837Z,998.14
2023-02-25T02:22:18.858Z,998.12
2023-02-25T02:23:18.874Z,998.11
2023-02-25T02:24:18.891Z,998.10
2023-02-25T02:25:18.914Z,998.09
2023-02-25T02:26:18.928Z,998.11
2023-02-25T02:27:18.944Z,998.04
2023-02-25T02:28:18.965Z,998.10
2023-02-25T02:29:18.986Z,998.01
2023-02-25T02:30:19.005Z,998.06
2023-02-25T02:31:19.065Z,998.01
2023-02-25T02:32:19.208Z,998.04
2023-02-25T02:33:19.052Z,998.03
2023-02-25T02:34:19.076Z,998.05
2023-02-25T02:35:19.093Z,998.07
2023-02-25T02:36:19.118Z,998.06
2023-02-25T02:37:19.127Z,998.06
2023-02-25T02:38:19.141Z,998.04
2023-02-25T02:39:19.161Z,998.05
2023-02-25T02:40:19.183Z,998.07
2023-02-25T02:41:19.199Z,998.00
2023-02-25T02:42:19.212Z,998.00
2023-02-25T02:43:19.235Z,998.03
2023-02-25T02:44:19.252Z,998.04
2023-02-25T02:45:19.270Z,998.06
2023-02-25T02:46:19.341Z,998.04
2023-02-25T02:47:19.303Z,998.06
2023-02-25T02:48:19.326Z,998.07
2023-02-25T02:49:19.341Z,998.07
2023-02-25T02:50:19.359Z,998.07
2023-02-25T02:51:19.374Z,998.12
2023-02-25T02:52:19.392Z,998.06
2023-02-25T02:53:19.410Z,998.08
2023-02-25T02:54:19.427Z,998.09
2023-02-25T02:55:19.443Z,998.11
2023-02-25T02:56:19.546Z,998.13
2023-02-25T02:57:19.480Z,998.08
2023-02-25T02:58:19.503Z,998.16
2023-02-25T02:59:19.562Z,998.16
2023-02-25T03:00:19.535Z,998.17
2023-02-25T03:01:19.605Z,998.18
2023-02-25T03:02:19.571Z,998.25
2023-02-25T03:03:19.590Z,998.20
2023-02-25T03:04:19.679Z,998.27
2023-02-25T03:05:19.624Z,998.27
2023-02-25T03:06:19.645Z,998.25
2023-02-25T03:07:19.669Z,998.28
2023-02-25T03:08:19.684Z,998.28
2023-02-25T03:09:19.743Z,998.29
2023-02-25T03:10:19.751Z,998.26
2023-02-25T03:11:19.774Z,998.25
2023-02-25T03:12:19.761Z,998.26
2023-02-25T03:13:19.767Z,998.28
2023-02-25T03:14:19.797Z,998.26
2023-02-25T03:15:19.806Z,998.26
2023-02-25T03:16:19.932Z,998.26
2023-02-25T03:17:19.838Z,998.26
2023-02-25T03:18:19.860Z,998.28
2023-02-25T03:19:19.884Z,998.26
2023-02-25T03:20:19.899Z,998.22
2023-02-25T03:21:19.926Z,998.20
2023-02-25T03:22:19.935Z,998.21
2023-02-25T03:23:19.952Z,998.23
2023-02-25T03:24:19.968Z,998.26
2023-02-25T03:25:19.993Z,998.22
2023-02-25T03:26:20.324Z,998.26
2023-02-25T03:27:20.045Z,998.24
2023-02-25T03:28:20.047Z,998.24
2023-02-25T03:29:20.065Z,998.28
2023-02-25T03:30:20.090Z,998.31
2023-02-25T03:31:20.113Z,998.32
2023-02-25T03:32:20.252Z,998.30
2023-02-25T03:33:20.138Z,998.32
2023-02-25T03:34:20.162Z,998.37
2023-02-25T03:35:20.173Z,998.37
2023-02-25T03:36:20.389Z,998.38
2023-02-25T03:37:20.213Z,998.40
2023-02-25T03:38:20.233Z,998.41
2023-02-25T03:39:20.256Z,998.40
2023-02-25T03:40:20.265Z,998.38
2023-02-25T03:41:20.295Z,998.38
2023-02-25T03:42:20.304Z,998.37
2023-02-25T03:43:20.324Z,998.43
2023-02-25T03:44:20.346Z,998.43
2023-02-25T03:45:20.364Z,998.42
2023-02-25T03:46:20.480Z,998.45
2023-02-25T03:47:20.397Z,998.44
2023-02-25T03:48:20.407Z,998.44
2023-02-25T03:49:20.434Z,998.50
2023-02-25T03:50:20.453Z,998.50
2023-02-25T03:51:20.468Z,998.48
2023-02-25T03:52:20.490Z,998.53
2023-02-25T03:53:20.511Z,998.57
2023-02-25T03:54:20.517Z,998.50
2023-02-25T03:55:20.543Z,998.57
2023-02-25T03:56:20.700Z,998.49
2023-02-25T03:57:20.595Z,998.53
2023-02-25T03:58:20.598Z,998.55
2023-02-25T03:59:20.608Z,998.55
2023-02-25T04:00:20.628Z,998.56
2023-02-25T04:01:20.648Z,998.60
2023-02-25T04:02:20.704Z,998.59
2023-02-25T04:03:20.688Z,998.62
2023-02-25T04:04:20.778Z,998.60
2023-02-25T04:05:20.720Z,998.68
2023-02-25T04:06:21.171Z,998.71
2023-02-25T04:07:20.748Z,998.73
2023-02-25T04:08:20.775Z,998.77
2023-02-25T04:09:20.787Z,998.76
2023-02-25T04:10:20.807Z,998.79
2023-02-25T04:11:20.827Z,998.76
2023-02-25T04:12:21.012Z,998.85
2023-02-25T04:13:20.892Z,998.87
2023-02-25T04:14:20.882Z,998.90
2023-02-25T04:15:20.906Z,998.88
2023-02-25T04:16:21.251Z,998.87
2023-02-25T04:17:21.043Z,998.84
2023-02-25T04:18:20.953Z,998.88
2023-02-25T04:19:20.973Z,998.89
2023-02-25T04:20:20.988Z,998.93
2023-02-25T04:21:21.004Z,998.95
2023-02-25T04:22:21.024Z,998.96
2023-02-25T04:23:21.041Z,998.99
2023-02-25T04:24:21.066Z,998.94
2023-02-25T04:25:21.074Z,998.94
2023-02-25T04:26:21.382Z,998.95
2023-02-25T04:27:21.117Z,998.94
2023-02-25T04:28:21.134Z,998.97
2023-02-25T04:29:21.153Z,998.93
2023-02-25T04:30:21.172Z,998.97
2023-02-25T04:31:21.287Z,998.97
2023-02-25T04:32:21.356Z,998.95
2023-02-25T04:33:21.222Z,998.95
2023-02-25T04:34:21.248Z,998.92
2023-02-25T04:35:21.262Z,998.99
2023-02-25T04:36:21.583Z,999.02
2023-02-25T04:37:21.305Z,999.08
2023-02-25T04:38:21.316Z,999.04
2023-02-25T04:39:21.332Z,999.05
2023-02-25T04:40:21.359Z,999.04
2023-02-25T04:41:21.369Z,999.02
2023-02-25T04:42:21.390Z,998.97
2023-02-25T04:43:21.411Z,998.96
2023-02-25T04:44:21.427Z,999.00
2023-02-25T04:45:21.442Z,998.95
2023-02-25T04:46:21.969Z,998.96
2023-02-25T04:47:21.526Z,998.98
2023-02-25T04:48:21.497Z,999.00
2023-02-25T04:49:21.515Z,999.01
2023-02-25T04:50:21.532Z,999.03
2023-02-25T04:51:21.553Z,999.01
2023-02-25T04:52:21.586Z,998.99
2023-02-25T04:53:21.589Z,998.99
2023-02-25T04:54:21.629Z,998.99
2023-02-25T04:55:21.624Z,998.97
2023-02-25T04:56:22.109Z,998.97
2023-02-25T04:57:21.698Z,998.97
2023-02-25T04:58:21.677Z,998.98
2023-02-25T04:59:21.694Z,998.94
2023-02-25T05:00:21.713Z,998.94
2023-02-25T05:01:21.762Z,998.92
2023-02-25T05:02:21.751Z,998.92
2023-02-25T05:03:21.767Z,998.92
2023-02-25T05:04:21.818Z,998.94
2023-02-25T05:05:21.816Z,998.91
2023-02-25T05:06:22.240Z,998.91
2023-02-25T05:07:21.839Z,998.90
2023-02-25T05:08:21.860Z,998.88
2023-02-25T05:09:21.875Z,998.84
2023-02-25T05:10:21.901Z,998.91
2023-02-25T05:11:21.929Z,998.90
2023-02-25T05:12:21.932Z,998.93
2023-02-25T05:13:21.950Z,998.91
2023-02-25T05:14:21.967Z,998.93
2023-02-25T05:15:21.984Z,998.92
2023-02-25T05:16:22.442Z,999.02
2023-02-25T05:17:22.023Z,998.98
2023-02-25T05:18:22.039Z,999.02
2023-02-25T05:19:22.068Z,998.99
2023-02-25T05:20:22.146Z,998.97
2023-02-25T05:21:22.099Z,999.00
2023-02-25T05:22:22.121Z,999.05
2023-02-25T05:23:22.137Z,999.03
2023-02-25T05:24:22.145Z,999.08
2023-02-25T05:25:22.164Z,999.07
2023-02-25T05:26:22.681Z,999.06
2023-02-25T05:27:22.202Z,999.07
2023-02-25T05:28:22.222Z,999.04
2023-02-25T05:29:22.290Z,999.01
2023-02-25T05:30:22.260Z,999.00
2023-02-25T05:31:22.354Z,999.03
2023-02-25T05:32:22.361Z,999.02
2023-02-25T05:33:22.313Z,999.07
2023-02-25T05:34:22.325Z,999.08
2023-02-25T05:35:22.357Z,999.06
2023-02-25T05:36:24.123Z,999.08
2023-02-25T05:37:22.377Z,999.09
2023-02-25T05:38:22.395Z,999.09
2023-02-25T05:39:22.426Z,999.06
2023-02-25T05:40:22.438Z,999.08
2023-02-25T05:41:22.448Z,999.09
2023-02-25T05:42:22.464Z,999.13
2023-02-25T05:43:22.483Z,999.12
2023-02-25T05:44:22.502Z,999.08
2023-02-25T05:45:22.518Z,999.05
2023-02-25T05:46:23.060Z,999.11
2023-02-25T05:47:22.558Z,999.15
2023-02-25T05:48:22.577Z,999.17
2023-02-25T05:49:22.594Z,999.19
2023-02-25T05:50:22.609Z,999.20
2023-02-25T05:51:22.664Z,999.21
2023-02-25T05:52:22.650Z,999.17
2023-02-25T05:53:22.661Z,999.19
2023-02-25T05:54:22.682Z,999.16
2023-02-25T05:55:22.699Z,999.21
2023-02-25T05:56:23.178Z,999.18
2023-02-25T05:57:22.735Z,999.21
2023-02-25T05:58:22.754Z,999.21
2023-02-25T05:59:22.770Z,999.24
2023-02-25T06:00:22.805Z,999.25
2023-02-25T06:01:22.886Z,999.23
2023-02-25T06:02:22.864Z,999.20
2023-02-25T06:03:22.901Z,999.23
2023-02-25T06:04:22.857Z,999.23
2023-02-25T06:05:22.875Z,999.25
2023-02-25T06:06:23.489Z,999.30
2023-02-25T06:07:22.910Z,999.31
2023-02-25T06:08:22.928Z,999.30
2023-02-25T06:09:22.951Z,999.32
2023-02-25T06:10:22.965Z,999.34
2023-02-25T06:11:22.981Z,999.35
2023-02-25T06:12:23.004Z,999.38
2023-02-25T06:13:23.021Z,999.38
2023-02-25T06:14:23.041Z,999.35
2023-02-25T06:15:23.054Z,999.34
2023-02-25T06:16:23.531Z,999.35
2023-02-25T06:17:23.142Z,999.34
2023-02-25T06:18:23.109Z,999.37
2023-02-25T06:19:23.132Z,999.43
2023-02-25T06:20:23.150Z,999.44
2023-02-25T06:21:23.161Z,999.46
2023-02-25T06:22:23.178Z,999.50
2023-02-25T06:23:23.198Z,999.44
2023-02-25T06:24:23.220Z,999.47
2023-02-25T06:25:23.233Z,999.43
2023-02-25T06:26:23.662Z,999.51
2023-02-25T06:27:23.268Z,999.55
2023-02-25T06:28:23.289Z,999.48
2023-02-25T06:29:23.310Z,999.51
2023-02-25T06:30:23.353Z,999.56
2023-02-25T06:31:23.369Z,999.57
2023-02-25T06:32:23.570Z,999.65
2023-02-25T06:33:23.377Z,999.62
2023-02-25T06:34:23.406Z,999.68
2023-02-25T06:35:23.546Z,999.70
2023-02-25T06:36:23.784Z,999.74
2023-02-25T06:37:23.454Z,999.75
2023-02-25T06:38:23.475Z,999.75
2023-02-25T06:39:23.489Z,999.74
2023-02-25T06:40:23.507Z,999.76
2023-02-25T06:41:23.535Z,999.72
2023-02-25T06:42:23.544Z,999.74
2023-02-25T06:43:23.563Z,999.78
2023-02-25T06:44:23.587Z,999.83
2023-02-25T06:45:23.602Z,999.80
2023-02-25T06:46:24.006Z,999.86
2023-02-25T06:47:23.633Z,999.81
2023-02-25T06:48:23.658Z,999.86
2023-02-25T06:49:23.671Z,999.94
2023-02-25T06:50:23.693Z,999.88
2023-02-25T06:51:23.724Z,999.91
2023-02-25T06:52:23.728Z,999.89
2023-02-25T06:53:23.746Z,999.89
2023-02-25T06:54:23.762Z,999.88
2023-02-25T06:55:23.783Z,999.88
2023-02-25T06:56:24.107Z,999.81
2023-02-25T06:57:23.824Z,999.80
2023-02-25T06:58:23.839Z,999.87
2023-02-25T06:59:23.853Z,999.88
2023-02-25T07:00:23.885Z,999.88
2023-02-25T07:01:24.037Z,999.83
2023-02-25T07:02:23.912Z,999.86
2023-02-25T07:03:23.936Z,999.88
2023-02-25T07:04:23.964Z,999.91
2023-02-25T07:05:23.965Z,999.88
2023-02-25T07:06:24.322Z,999.91
2023-02-25T07:07:23.999Z,999.98
2023-02-25T07:08:24.026Z,999.98
2023-02-25T07:09:24.037Z,1000.01
2023-02-25T07:10:24.068Z,1000.06
2023-02-25T07:11:24.089Z,1000.09
2023-02-25T07:12:24.093Z,1000.12
2023-02-25T07:13:24.112Z,1000.12
2023-02-25T07:14:24.121Z,1000.20
2023-02-25T07:15:24.141Z,1000.19
2023-02-25T07:16:24.512Z,1000.19
2023-02-25T07:17:24.182Z,1000.24
2023-02-25T07:18:24.223Z,1000.23
2023-02-25T07:19:24.213Z,1000.28
2023-02-25T07:20:24.239Z,1000.28
2023-02-25T07:21:24.251Z,1000.29
2023-02-25T07:22:24.411Z,1000.28
2023-02-25T07:23:24.297Z,1000.26
2023-02-25T07:24:24.309Z,1000.22
2023-02-25T07:25:24.427Z,1000.23
2023-02-25T07:26:24.572Z,1000.27
2023-02-25T07:27:24.369Z,1000.34
2023-02-25T07:28:24.388Z,1000.25
2023-02-25T07:29:24.399Z,1000.37
2023-02-25T07:30:24.417Z,1000.35
2023-02-25T07:31:24.914Z,1000.33
2023-02-25T07:32:24.688Z,1000.37
2023-02-25T07:33:24.474Z,1000.38
2023-02-25T07:34:24.493Z,1000.39
2023-02-25T07:35:24.514Z,1000.41
2023-02-25T07:36:24.533Z,1000.43
2023-02-25T07:37:24.575Z,1000.43
2023-02-25T07:38:24.568Z,1000.43
2023-02-25T07:39:24.579Z,1000.44
2023-02-25T07:40:24.604Z,1000.46
2023-02-25T07:41:24.846Z,1000.52
2023-02-25T07:42:24.639Z,1000.52
2023-02-25T07:43:24.686Z,1000.52
2023-02-25T07:44:24.693Z,1000.52
2023-02-25T07:45:24.714Z,1000.51
2023-02-25T07:46:24.814Z,1000.53
2023-02-25T07:47:24.735Z,1000.53
2023-02-25T07:48:24.760Z,1000.54
2023-02-25T07:49:24.783Z,1000.54
2023-02-25T07:50:24.793Z,1000.52
2023-02-25T07:51:25.255Z,1000.57
2023-02-25T07:52:24.832Z,1000.59
2023-02-25T07:53:24.852Z,1000.58
2023-02-25T07:54:24.870Z,1000.59
2023-02-25T07:55:24.891Z,1000.60
2023-02-25T07:56:24.911Z,1000.61
2023-02-25T07:57:24.928Z,1000.65
2023-02-25T07:58:24.947Z,1000.72
2023-02-25T07:59:24.966Z,1000.70
2023-02-25T08:00:25.038Z,1000.69
2023-02-25T08:01:25.465Z,1000.67
2023-02-25T08:02:25.079Z,1000.67
2023-02-25T08:03:25.038Z,1000.70
2023-02-25T08:04:25.095Z,1000.68
2023-02-25T08:05:25.086Z,1000.70
2023-02-25T08:06:25.100Z,1000.67
2023-02-25T08:07:26.695Z,1000.74
2023-02-25T08:08:25.141Z,1000.71
2023-02-25T08:09:25.155Z,1000.78
2023-02-25T08:10:25.174Z,1000.74
2023-02-25T08:11:25.649Z,1000.74
2023-02-25T08:12:25.222Z,1000.75
2023-02-25T08:13:25.230Z,1000.73
2023-02-25T08:14:25.248Z,1000.78
2023-02-25T08:15:25.267Z,1000.82
2023-02-25T08:16:25.322Z,1000.82
2023-02-25T08:17:25.306Z,1000.83
2023-02-25T08:18:25.400Z,1000.82
2023-02-25T08:19:25.343Z,1000.82
2023-02-25T08:20:25.361Z,1000.89
2023-02-25T08:21:25.860Z,1000.96
2023-02-25T08:22:25.405Z,1000.95
2023-02-25T08:23:25.551Z,1000.95
2023-02-25T08:24:25.445Z,1000.98
2023-02-25T08:25:25.781Z,1000.92
2023-02-25T08:26:25.542Z,1000.98
2023-02-25T08:27:25.495Z,1000.97
2023-02-25T08:28:25.519Z,1000.96
2023-02-25T08:29:25.541Z,1000.97
2023-02-25T08:30:25.565Z,1000.98
2023-02-25T08:31:26.166Z,1000.98
2023-02-25T08:32:25.701Z,1000.98
2023-02-25T08:33:25.613Z,1000.99
2023-02-25T08:34:25.642Z,1000.98
2023-02-25T08:35:25.654Z,1000.95
2023-02-25T08:36:25.673Z,1000.94
2023-02-25T08:37:25.690Z,1000.95
2023-02-25T08:38:25.878Z,1000.95
2023-02-25T08:39:25.767Z,1000.99
2023-02-25T08:40:25.783Z,1001.01
2023-02-25T08:41:26.112Z,1000.94
2023-02-25T08:42:25.788Z,1000.95
2023-02-25T08:43:25.808Z,1001.05
2023-02-25T08:44:25.841Z,1001.04
2023-02-25T08:45:25.983Z,1001.02
2023-02-25T08:46:25.923Z,1001.04
2023-02-25T08:47:25.884Z,1001.06
2023-02-25T08:48:25.902Z,1001.07
2023-02-25T08:49:25.918Z,1001.07
2023-02-25T08:50:26.068Z,1001.12
2023-02-25T08:51:26.131Z,1001.05
2023-02-25T08:52:25.982Z,1000.99
2023-02-25T08:53:26.012Z,1000.96
2023-02-25T08:54:26.031Z,1000.99
2023-02-25T08:55:26.137Z,1001.08
2023-02-25T08:56:26.063Z,1001.05
2023-02-25T08:57:26.121Z,1001.11
2023-02-25T08:58:26.099Z,1001.17
2023-02-25T08:59:26.189Z,1001.03
2023-02-25T09:00:26.162Z,1001.02
2023-02-25T09:01:26.605Z,1001.16
2023-02-25T09:02:26.198Z,1001.13
2023-02-25T09:03:26.231Z,1001.18
2023-02-25T09:04:26.304Z,1001.19
2023-02-25T09:05:26.272Z,1001.33
2023-02-25T09:06:26.285Z,1001.29
2023-02-25T09:07:26.318Z,1001.20
2023-02-25T09:08:26.541Z,1001.25
2023-02-25T09:09:27.309Z,1001.23
2023-02-25T09:10:26.330Z,1001.22
2023-02-25T09:11:26.758Z,1001.28
2023-02-25T09:12:26.368Z,1001.26
2023-02-25T09:13:26.395Z,1001.28
2023-02-25T09:14:26.415Z,1001.23
2023-02-25T09:15:26.427Z,1001.23
2023-02-25T09:16:26.476Z,1001.25
2023-02-25T09:17:26.465Z,1001.20
2023-02-25T09:18:26.488Z,1001.22
2023-02-25T09:19:26.506Z,1001.26
2023-02-25T09:20:26.521Z,1001.29
2023-02-25T09:21:26.543Z,1001.27
2023-02-25T09:22:26.565Z,1001.35
2023-02-25T09:23:26.593Z,1001.43
2023-02-25T09:24:26.608Z,1001.34
2023-02-25T09:25:26.622Z,1001.32
2023-02-25T09:26:26.663Z,1001.38
2023-02-25T09:27:26.671Z,1001.36
2023-02-25T09:28:26.688Z,1001.25
2023-02-25T09:29:26.698Z,1001.39
2023-02-25T09:30:26.723Z,1001.43
2023-02-25T09:31:27.289Z,1001.34
2023-02-25T09:32:26.874Z,1001.39
2023-02-25T09:33:26.777Z,1001.42
2023-02-25T09:34:26.795Z,1001.40
2023-02-25T09:35:26.814Z,1001.46
2023-02-25T09:36:26.833Z,1001.49
2023-02-25T09:37:26.854Z,1001.53
2023-02-25T09:38:26.868Z,1001.66
2023-02-25T09:39:26.890Z,1001.53
2023-02-25T09:40:26.906Z,1001.51
2023-02-25T09:41:26.944Z,1001.52
2023-02-25T09:42:26.970Z,1001.54
2023-02-25T09:43:26.974Z,1001.59
2023-02-25T09:44:27.068Z,1001.63
2023-02-25T09:45:27.007Z,1001.45
2023-02-25T09:46:27.035Z,1001.59
2023-02-25T09:47:27.118Z,1001.62
2023-02-25T09:48:27.076Z,1001.58
2023-02-25T09:49:27.089Z,1001.60
2023-02-25T09:50:27.100Z,1001.65
2023-02-25T09:51:27.123Z,1001.63
2023-02-25T09:52:27.140Z,1001.65
2023-02-25T09:53:27.158Z,1001.72
2023-02-25T09:54:27.182Z,1001.72
2023-02-25T09:55:27.198Z,1001.74
2023-02-25T09:56:27.218Z,1001.74
2023-02-25T09:57:27.236Z,1001.74
2023-02-25T09:58:27.258Z,1001.77
2023-02-25T09:59:27.278Z,1001.81
2023-02-25T10:00:27.299Z,1001.95
2023-02-25T10:01:27.325Z,1001.88
2023-02-25T10:02:27.377Z,1001.84
2023-02-25T10:03:27.362Z,1001.88
2023-02-25T10:04:27.372Z,1001.94
2023-02-25T10:05:27.392Z,1001.96
2023-02-25T10:06:27.423Z,1001.98
2023-02-25T10:07:27.433Z,1001.95
2023-02-25T10:08:27.463Z,1002.04
2023-02-25T10:09:27.471Z,1002.02
2023-02-25T10:10:27.503Z,1002.11
2023-02-25T10:11:27.543Z,1002.13
2023-02-25T10:12:27.534Z,1002.17
2023-02-25T10:13:27.547Z,1002.08
2023-02-25T10:14:27.565Z,1002.12
2023-02-25T10:15:27.596Z,1002.11
2023-02-25T10:16:27.655Z,1002.13
2023-02-25T10:17:27.639Z,1002.17
2023-02-25T10:18:27.648Z,1002.24
2023-02-25T10:19:27.663Z,1002.21
2023-02-25T10:20:27.682Z,1002.18
2023-02-25T10:21:27.701Z,1002.17
2023-02-25T10:22:27.718Z,1002.17
2023-02-25T10:23:27.735Z,1002.54
2023-02-25T10:24:27.758Z,1002.24
2023-02-25T10:25:27.786Z,1002.24
2023-02-25T10:26:27.801Z,1002.23
2023-02-25T10:27:27.816Z,1002.27
2023-02-25T10:28:27.832Z,1002.23
2023-02-25T10:29:27.848Z,1002.26
2023-02-25T10:30:27.978Z,1002.43
2023-02-25T10:31:28.417Z,1002.25
2023-02-25T10:32:28.036Z,1002.31
2023-02-25T10:33:27.926Z,1002.41
2023-02-25T10:34:27.945Z,1002.38
2023-02-25T10:35:27.965Z,1002.44
2023-02-25T10:36:27.986Z,1002.43
2023-02-25T10:37:28.008Z,1002.45
2023-02-25T10:38:28.024Z,1002.44
2023-02-25T10:39:28.046Z,1002.43
2023-02-25T10:40:28.062Z,1002.49
2023-02-25T10:41:28.086Z,1002.43
2023-02-25T10:42:28.102Z,1002.48
2023-02-25T10:43:28.121Z,1002.50
2023-02-25T10:44:28.145Z,1002.45
2023-02-25T10:45:28.158Z,1002.53
2023-02-25T10:46:28.240Z,1002.53
2023-02-25T10:47:28.203Z,1002.52
2023-02-25T10:48:28.217Z,1002.45
2023-02-25T10:49:28.246Z,1002.49
2023-02-25T10:50:42.888Z,1002.59
2023-02-25T10:51:28.308Z,1002.63
2023-02-25T10:52:28.290Z,1002.62
2023-02-25T10:53:28.311Z,1002.55
2023-02-25T10:54:28.337Z,1002.56
2023-02-25T10:55:28.349Z,1002.53
2023-02-25T10:56:28.374Z,1002.61
2023-02-25T10:57:28.390Z,1002.57
2023-02-25T10:58:28.405Z,1002.56
2023-02-25T10:59:30.806Z,1002.63
2023-02-25T11:00:28.447Z,1002.72
2023-02-25T11:01:28.532Z,1002.64
2023-02-25T11:02:28.605Z,1002.81
2023-02-25T11:03:28.506Z,1002.66
2023-02-25T11:04:28.540Z,1002.70
2023-02-25T11:05:28.541Z,1002.69
2023-02-25T11:06:28.567Z,1002.77
2023-02-25T11:07:28.582Z,1002.75
2023-02-25T11:08:28.598Z,1002.80
2023-02-25T11:09:28.638Z,1002.83
2023-02-25T11:10:28.655Z,1002.84
2023-02-25T11:11:31.035Z,1002.83
2023-02-25T11:12:28.679Z,1002.84
2023-02-25T11:13:28.724Z,1002.89
2023-02-25T11:14:28.717Z,1002.83
2023-02-25T11:15:43.177Z,1002.84
2023-02-25T11:16:28.795Z,1002.85
2023-02-25T11:17:28.792Z,1002.88
2023-02-25T11:18:28.789Z,1002.83
2023-02-25T11:19:28.815Z,1002.82
2023-02-25T11:20:28.838Z,1002.88
2023-02-25T11:21:28.855Z,1002.93
2023-02-25T11:22:28.872Z,1002.94
2023-02-25T11:23:28.893Z,1003.05
2023-02-25T11:24:28.911Z,1002.93
2023-02-25T11:25:28.932Z,1002.93
2023-02-25T11:26:28.947Z,1002.85
2023-02-25T11:27:28.971Z,1002.85
2023-02-25T11:28:28.987Z,1002.83
2023-02-25T11:29:29.013Z,1002.93
2023-02-25T11:30:29.042Z,1002.96
2023-02-25T11:31:29.540Z,1002.95
2023-02-25T11:32:29.184Z,1002.86
2023-02-25T11:33:29.083Z,1002.87
2023-02-25T11:34:30.041Z,1003.01
2023-02-25T11:35:29.117Z,1003.07
2023-02-25T11:36:29.161Z,1002.87
2023-02-25T11:37:29.174Z,1003.08
2023-02-25T11:38:29.173Z,1003.01
2023-02-25T11:39:29.197Z,1003.15
2023-02-25T11:40:29.218Z,1002.93
2023-02-25T11:41:29.229Z,1002.96
2023-02-25T11:42:29.250Z,1003.00
2023-02-25T11:43:29.271Z,1002.88
2023-02-25T11:44:29.290Z,1003.06
2023-02-25T11:45:29.306Z,1003.09
2023-02-25T11:46:29.344Z,1003.01
2023-02-25T11:47:29.351Z,1003.07
2023-02-25T11:48:29.361Z,1003.01
2023-02-25T11:49:29.429Z,1002.94
2023-02-25T11:50:29.411Z,1002.88
2023-02-25T11:51:29.429Z,1002.96
2023-02-25T11:52:29.443Z,1002.97
2023-02-25T11:53:29.506Z,1002.89
2023-02-25T11:54:29.498Z,1003.01
2023-02-25T11:55:29.502Z,1002.89
2023-02-25T11:56:29.515Z,1003.06
2023-02-25T11:57:29.533Z,1003.02
2023-02-25T11:58:29.553Z,1003.03
2023-02-25T11:59:29.572Z,1003.03
2023-02-25T12:00:29.625Z,1002.90
2023-02-25T12:01:29.614Z,1003.06
2023-02-25T12:02:29.641Z,1003.06
2023-02-25T12:03:29.647Z,1003.11
2023-02-25T12:04:29.681Z,1003.16
2023-02-25T12:05:29.714Z,1003.04
2023-02-25T12:06:29.706Z,1003.06
2023-02-25T12:07:29.724Z,1003.07
2023-02-25T12:08:29.744Z,1003.10
2023-02-25T12:09:29.762Z,1003.08
2023-02-25T12:10:29.784Z,1003.12
2023-02-25T12:11:29.801Z,1003.05
2023-02-25T12:12:29.830Z,1003.15
2023-02-25T12:13:29.910Z,1003.11
2023-02-25T12:14:29.857Z,1003.18
2023-02-25T12:15:29.876Z,1003.27
2023-02-25T12:16:29.956Z,1003.15
2023-02-25T12:17:29.914Z,1003.23
2023-02-25T12:18:29.934Z,1003.23